Santo Augusto, Brazil
Current Conditions -  °F | °C
As of 7:00 AM on Friday 28 Nov 2014 (Local Time) from SBCH Reporting Station
Scattered Clouds Scattered Clouds  
Wind Chill: 72°   Ceiling: Unl
Heat Index: 72°   Visibility: 6mi
Dew Point: 61°   Wind: 17mph
Humidity: 69%   Direction: 120°ESE
Pressure: 29.97"   Gusts: NA
Location:  27.85°S, 53.78°W
Report Text: SBCH 280900Z 12015KT 9999 SCT035 22/16 Q1015
Loading
Personal Weather Stations






























Interactive Weather Map New forecast layout! Learn more

10-Day Weather Forecast

Advertisements
Track Severe Weather on mobile